sensor_id;sensor_type;location;lat;lon;timestamp;P1;durP1;ratioP1;P2;durP2;ratioP2
37997;SDS011;24079;51.824;4.682;2022-10-29T00:01:44;25.25;;;8.48;;
37997;SDS011;24079;51.824;4.682;2022-10-29T00:04:10;30.73;;;8.60;;
37997;SDS011;24079;51.824;4.682;2022-10-29T00:06:35;26.13;;;8.38;;
37997;SDS011;24079;51.824;4.682;2022-10-29T00:09:01;26.88;;;9.25;;
37997;SDS011;24079;51.824;4.682;2022-10-29T00:11:27;28.58;;;8.98;;
37997;SDS011;24079;51.824;4.682;2022-10-29T00:13:57;32.33;;;9.88;;
37997;SDS011;24079;51.824;4.682;2022-10-29T00:16:25;30.27;;;8.47;;
37997;SDS011;24079;51.824;4.682;2022-10-29T00:18:53;29.63;;;8.40;;
37997;SDS011;24079;51.824;4.682;2022-10-29T00:21:20;25.73;;;8.40;;
37997;SDS011;24079;51.824;4.682;2022-10-29T00:23:46;35.45;;;9.18;;
37997;SDS011;24079;51.824;4.682;2022-10-29T00:26:13;27.95;;;9.63;;
37997;SDS011;24079;51.824;4.682;2022-10-29T00:28:39;23.05;;;8.23;;
37997;SDS011;24079;51.824;4.682;2022-10-29T00:31:05;26.63;;;8.98;;
37997;SDS011;24079;51.824;4.682;2022-10-29T00:33:33;24.23;;;9.35;;
37997;SDS011;24079;51.824;4.682;2022-10-29T00:36:00;26.23;;;8.25;;
37997;SDS011;24079;51.824;4.682;2022-10-29T00:38:27;22.90;;;7.93;;
37997;SDS011;24079;51.824;4.682;2022-10-29T00:40:55;27.38;;;9.20;;
37997;SDS011;24079;51.824;4.682;2022-10-29T00:43:22;23.25;;;7.43;;
37997;SDS011;24079;51.824;4.682;2022-10-29T00:48:21;21.55;;;8.57;;
37997;SDS011;24079;51.824;4.682;2022-10-29T00:50:49;27.20;;;9.32;;
37997;SDS011;24079;51.824;4.682;2022-10-29T00:53:15;27.45;;;8.90;;
37997;SDS011;24079;51.824;4.682;2022-10-29T00:55:44;27.35;;;9.65;;
37997;SDS011;24079;51.824;4.682;2022-10-29T00:58:10;29.85;;;9.77;;
37997;SDS011;24079;51.824;4.682;2022-10-29T01:00:36;32.70;;;9.45;;
37997;SDS011;24079;51.824;4.682;2022-10-29T01:03:03;24.65;;;8.50;;
37997;SDS011;24079;51.824;4.682;2022-10-29T01:05:32;25.98;;;9.05;;
37997;SDS011;24079;51.824;4.682;2022-10-29T01:07:59;30.20;;;9.05;;
37997;SDS011;24079;51.824;4.682;2022-10-29T01:10:47;25.83;;;9.23;;
37997;SDS011;24079;51.824;4.682;2022-10-29T01:13:35;19.27;;;8.10;;
37997;SDS011;24079;51.824;4.682;2022-10-29T01:18:59;27.98;;;8.68;;
37997;SDS011;24079;51.824;4.682;2022-10-29T01:21:45;24.33;;;8.93;;
37997;SDS011;24079;51.824;4.682;2022-10-29T01:24:41;21.13;;;8.45;;
37997;SDS011;24079;51.824;4.682;2022-10-29T01:35:46;20.52;;;8.38;;
37997;SDS011;24079;51.824;4.682;2022-10-29T01:38:44;22.33;;;7.70;;
37997;SDS011;24079;51.824;4.682;2022-10-29T01:48:55;21.95;;;7.70;;
37997;SDS011;24079;51.824;4.682;2022-10-29T01:51:26;20.23;;;8.07;;
37997;SDS011;24079;51.824;4.682;2022-10-29T01:53:54;22.75;;;7.78;;
37997;SDS011;24079;51.824;4.682;2022-10-29T01:56:21;23.63;;;8.38;;
37997;SDS011;24079;51.824;4.682;2022-10-29T01:58:47;25.95;;;7.70;;
37997;SDS011;24079;51.824;4.682;2022-10-29T02:04:02;20.00;;;8.25;;
37997;SDS011;24079;51.824;4.682;2022-10-29T02:10:09;32.15;;;10.85;;
37997;SDS011;24079;51.824;4.682;2022-10-29T02:12:40;26.02;;;9.40;;
37997;SDS011;24079;51.824;4.682;2022-10-29T02:15:23;24.80;;;9.30;;
37997;SDS011;24079;51.824;4.682;2022-10-29T02:17:58;20.17;;;9.35;;
37997;SDS011;24079;51.824;4.682;2022-10-29T02:20:25;18.83;;;9.18;;
37997;SDS011;24079;51.824;4.682;2022-10-29T02:22:50;23.30;;;9.35;;
37997;SDS011;24079;51.824;4.682;2022-10-29T02:25:16;19.20;;;9.60;;
37997;SDS011;24079;51.824;4.682;2022-10-29T02:27:42;24.60;;;9.27;;
37997;SDS011;24079;51.824;4.682;2022-10-29T02:30:07;21.08;;;10.13;;
37997;SDS011;24079;51.824;4.682;2022-10-29T02:32:33;22.70;;;9.98;;
37997;SDS011;24079;51.824;4.682;2022-10-29T02:34:59;26.45;;;9.77;;
37997;SDS011;24079;51.824;4.682;2022-10-29T02:37:25;24.15;;;10.23;;
37997;SDS011;24079;51.824;4.682;2022-10-29T02:39:51;21.83;;;10.18;;
37997;SDS011;24079;51.824;4.682;2022-10-29T02:42:17;22.23;;;9.48;;
37997;SDS011;24079;51.824;4.682;2022-10-29T02:44:42;18.05;;;9.75;;
37997;SDS011;24079;51.824;4.682;2022-10-29T02:47:08;23.60;;;10.05;;
37997;SDS011;24079;51.824;4.682;2022-10-29T02:49:33;19.08;;;8.90;;
37997;SDS011;24079;51.824;4.682;2022-10-29T02:51:59;22.52;;;8.68;;
37997;SDS011;24079;51.824;4.682;2022-10-29T02:54:25;20.98;;;9.02;;
37997;SDS011;24079;51.824;4.682;2022-10-29T02:56:50;17.85;;;8.77;;
37997;SDS011;24079;51.824;4.682;2022-10-29T02:59:16;22.00;;;9.35;;
37997;SDS011;24079;51.824;4.682;2022-10-29T03:01:41;17.35;;;8.65;;
37997;SDS011;24079;51.824;4.682;2022-10-29T03:04:08;17.42;;;7.85;;
37997;SDS011;24079;51.824;4.682;2022-10-29T03:06:35;20.23;;;8.65;;
37997;SDS011;24079;51.824;4.682;2022-10-29T03:09:01;20.80;;;9.07;;
37997;SDS011;24079;51.824;4.682;2022-10-29T03:11:27;17.70;;;9.48;;
37997;SDS011;24079;51.824;4.682;2022-10-29T03:13:53;18.15;;;9.07;;
37997;SDS011;24079;51.824;4.682;2022-10-29T03:16:18;20.80;;;9.23;;
37997;SDS011;24079;51.824;4.682;2022-10-29T03:18:44;24.48;;;9.70;;
37997;SDS011;24079;51.824;4.682;2022-10-29T03:21:09;21.60;;;9.82;;
37997;SDS011;24079;51.824;4.682;2022-10-29T03:23:35;25.52;;;9.82;;
37997;SDS011;24079;51.824;4.682;2022-10-29T03:26:00;22.83;;;10.00;;
37997;SDS011;24079;51.824;4.682;2022-10-29T03:28:26;22.75;;;9.80;;
37997;SDS011;24079;51.824;4.682;2022-10-29T03:30:52;26.65;;;10.35;;
37997;SDS011;24079;51.824;4.682;2022-10-29T03:33:18;22.75;;;9.88;;
37997;SDS011;24079;51.824;4.682;2022-10-29T03:35:44;26.17;;;11.23;;
37997;SDS011;24079;51.824;4.682;2022-10-29T03:38:09;22.95;;;10.25;;
37997;SDS011;24079;51.824;4.682;2022-10-29T03:40:35;21.95;;;10.23;;
37997;SDS011;24079;51.824;4.682;2022-10-29T03:43:00;18.05;;;9.73;;
37997;SDS011;24079;51.824;4.682;2022-10-29T03:45:26;24.98;;;10.15;;
37997;SDS011;24079;51.824;4.682;2022-10-29T03:47:51;21.60;;;9.82;;
37997;SDS011;24079;51.824;4.682;2022-10-29T03:50:17;23.85;;;10.15;;
37997;SDS011;24079;51.824;4.682;2022-10-29T03:52:43;19.60;;;9.82;;
37997;SDS011;24079;51.824;4.682;2022-10-29T03:55:08;18.35;;;10.15;;
37997;SDS011;24079;51.824;4.682;2022-10-29T03:57:34;24.95;;;10.48;;
37997;SDS011;24079;51.824;4.682;2022-10-29T04:00:00;20.35;;;11.20;;
37997;SDS011;24079;51.824;4.682;2022-10-29T04:02:28;20.80;;;10.02;;
37997;SDS011;24079;51.824;4.682;2022-10-29T04:04:54;20.25;;;9.45;;
37997;SDS011;24079;51.824;4.682;2022-10-29T04:07:19;21.05;;;10.27;;
37997;SDS011;24079;51.824;4.682;2022-10-29T04:09:45;18.60;;;10.13;;
37997;SDS011;24079;51.824;4.682;2022-10-29T04:12:11;20.58;;;10.23;;
37997;SDS011;24079;51.824;4.682;2022-10-29T04:14:36;23.90;;;11.13;;
37997;SDS011;24079;51.824;4.682;2022-10-29T04:17:02;28.10;;;11.93;;
37997;SDS011;24079;51.824;4.682;2022-10-29T04:19:27;27.88;;;11.52;;
37997;SDS011;24079;51.824;4.682;2022-10-29T04:21:53;18.55;;;9.98;;
37997;SDS011;24079;51.824;4.682;2022-10-29T04:24:18;24.80;;;11.63;;
37997;SDS011;24079;51.824;4.682;2022-10-29T04:26:44;27.75;;;11.30;;
37997;SDS011;24079;51.824;4.682;2022-10-29T04:29:10;20.25;;;10.82;;
37997;SDS011;24079;51.824;4.682;2022-10-29T04:31:36;23.75;;;11.07;;
37997;SDS011;24079;51.824;4.682;2022-10-29T04:34:02;25.15;;;11.70;;
37997;SDS011;24079;51.824;4.682;2022-10-29T04:36:27;24.20;;;10.77;;
37997;SDS011;24079;51.824;4.682;2022-10-29T04:38:53;22.48;;;10.70;;
37997;SDS011;24079;51.824;4.682;2022-10-29T04:41:19;23.45;;;11.30;;
37997;SDS011;24079;51.824;4.682;2022-10-29T04:43:44;18.52;;;11.20;;
37997;SDS011;24079;51.824;4.682;2022-10-29T04:46:10;27.25;;;11.38;;
37997;SDS011;24079;51.824;4.682;2022-10-29T04:48:36;26.38;;;12.15;;
37997;SDS011;24079;51.824;4.682;2022-10-29T04:51:02;23.08;;;12.55;;
37997;SDS011;24079;51.824;4.682;2022-10-29T04:53:28;28.02;;;13.00;;
37997;SDS011;24079;51.824;4.682;2022-10-29T04:56:00;26.35;;;13.07;;
37997;SDS011;24079;51.824;4.682;2022-10-29T04:58:27;27.02;;;13.82;;
37997;SDS011;24079;51.824;4.682;2022-10-29T05:00:53;25.00;;;12.60;;
37997;SDS011;24079;51.824;4.682;2022-10-29T05:03:24;29.55;;;14.30;;
37997;SDS011;24079;51.824;4.682;2022-10-29T05:05:49;22.25;;;12.18;;
37997;SDS011;24079;51.824;4.682;2022-10-29T05:08:15;24.35;;;12.45;;
37997;SDS011;24079;51.824;4.682;2022-10-29T05:10:41;29.63;;;14.45;;
37997;SDS011;24079;51.824;4.682;2022-10-29T05:13:10;24.95;;;13.10;;
37997;SDS011;24079;51.824;4.682;2022-10-29T05:15:37;26.10;;;13.35;;
37997;SDS011;24079;51.824;4.682;2022-10-29T05:18:03;29.98;;;13.38;;
37997;SDS011;24079;51.824;4.682;2022-10-29T05:20:29;25.63;;;12.90;;
37997;SDS011;24079;51.824;4.682;2022-10-29T05:23:03;24.27;;;12.40;;
37997;SDS011;24079;51.824;4.682;2022-10-29T05:25:31;30.67;;;13.93;;
37997;SDS011;24079;51.824;4.682;2022-10-29T05:28:08;25.02;;;14.63;;
37997;SDS011;24079;51.824;4.682;2022-10-29T05:30:37;27.13;;;14.88;;
37997;SDS011;24079;51.824;4.682;2022-10-29T05:33:06;25.83;;;13.85;;
37997;SDS011;24079;51.824;4.682;2022-10-29T05:35:33;23.65;;;12.68;;
37997;SDS011;24079;51.824;4.682;2022-10-29T05:37:59;26.95;;;13.77;;
37997;SDS011;24079;51.824;4.682;2022-10-29T05:40:25;26.83;;;13.30;;
37997;SDS011;24079;51.824;4.682;2022-10-29T05:42:51;28.88;;;13.88;;
37997;SDS011;24079;51.824;4.682;2022-10-29T05:45:17;22.08;;;13.10;;
37997;SDS011;24079;51.824;4.682;2022-10-29T05:47:43;21.35;;;12.45;;
37997;SDS011;24079;51.824;4.682;2022-10-29T05:50:09;24.17;;;13.15;;
37997;SDS011;24079;51.824;4.682;2022-10-29T05:52:35;22.30;;;13.52;;
37997;SDS011;24079;51.824;4.682;2022-10-29T05:55:01;25.65;;;13.73;;
37997;SDS011;24079;51.824;4.682;2022-10-29T05:57:27;22.17;;;12.70;;
37997;SDS011;24079;51.824;4.682;2022-10-29T05:59:52;26.42;;;14.02;;
37997;SDS011;24079;51.824;4.682;2022-10-29T06:02:18;27.13;;;13.27;;
37997;SDS011;24079;51.824;4.682;2022-10-29T06:04:44;26.33;;;13.73;;
37997;SDS011;24079;51.824;4.682;2022-10-29T06:07:09;25.70;;;13.25;;
37997;SDS011;24079;51.824;4.682;2022-10-29T06:09:35;33.33;;;15.05;;
37997;SDS011;24079;51.824;4.682;2022-10-29T06:12:00;26.13;;;14.30;;
37997;SDS011;24079;51.824;4.682;2022-10-29T06:14:26;29.27;;;15.68;;
37997;SDS011;24079;51.824;4.682;2022-10-29T06:16:51;31.58;;;14.90;;
37997;SDS011;24079;51.824;4.682;2022-10-29T06:19:17;29.38;;;15.90;;
37997;SDS011;24079;51.824;4.682;2022-10-29T06:21:43;36.33;;;17.17;;
37997;SDS011;24079;51.824;4.682;2022-10-29T06:24:08;36.13;;;18.00;;
37997;SDS011;24079;51.824;4.682;2022-10-29T06:26:34;37.17;;;18.17;;
37997;SDS011;24079;51.824;4.682;2022-10-29T06:29:04;35.53;;;17.30;;
37997;SDS011;24079;51.824;4.682;2022-10-29T06:31:29;35.10;;;17.63;;
37997;SDS011;24079;51.824;4.682;2022-10-29T06:33:55;36.15;;;18.98;;
37997;SDS011;24079;51.824;4.682;2022-10-29T06:36:21;36.90;;;18.98;;
37997;SDS011;24079;51.824;4.682;2022-10-29T06:38:46;34.30;;;17.70;;
37997;SDS011;24079;51.824;4.682;2022-10-29T06:41:13;40.28;;;19.80;;
37997;SDS011;24079;51.824;4.682;2022-10-29T06:43:39;38.17;;;18.48;;
37997;SDS011;24079;51.824;4.682;2022-10-29T06:46:05;47.75;;;18.77;;
37997;SDS011;24079;51.824;4.682;2022-10-29T06:48:31;32.40;;;19.27;;
37997;SDS011;24079;51.824;4.682;2022-10-29T06:50:57;45.13;;;20.05;;
37997;SDS011;24079;51.824;4.682;2022-10-29T06:53:23;39.30;;;19.10;;
37997;SDS011;24079;51.824;4.682;2022-10-29T06:55:49;35.15;;;18.55;;
37997;SDS011;24079;51.824;4.682;2022-10-29T06:58:18;38.95;;;20.60;;
37997;SDS011;24079;51.824;4.682;2022-10-29T07:00:45;40.70;;;18.83;;
37997;SDS011;24079;51.824;4.682;2022-10-29T07:03:15;40.53;;;19.48;;
37997;SDS011;24079;51.824;4.682;2022-10-29T07:05:42;36.80;;;18.95;;
37997;SDS011;24079;51.824;4.682;2022-10-29T07:08:09;37.00;;;18.20;;
37997;SDS011;24079;51.824;4.682;2022-10-29T07:10:35;37.85;;;18.98;;
37997;SDS011;24079;51.824;4.682;2022-10-29T07:13:01;35.15;;;18.15;;
37997;SDS011;24079;51.824;4.682;2022-10-29T07:15:27;30.17;;;16.95;;
37997;SDS011;24079;51.824;4.682;2022-10-29T07:20:23;37.83;;;18.45;;
37997;SDS011;24079;51.824;4.682;2022-10-29T07:22:49;35.00;;;17.58;;
37997;SDS011;24079;51.824;4.682;2022-10-29T07:25:15;40.63;;;18.75;;
37997;SDS011;24079;51.824;4.682;2022-10-29T07:27:40;35.15;;;17.88;;
37997;SDS011;24079;51.824;4.682;2022-10-29T07:30:06;36.65;;;18.10;;
37997;SDS011;24079;51.824;4.682;2022-10-29T07:32:32;31.52;;;17.80;;
37997;SDS011;24079;51.824;4.682;2022-10-29T07:34:57;38.70;;;18.55;;
37997;SDS011;24079;51.824;4.682;2022-10-29T07:37:23;34.03;;;17.95;;
37997;SDS011;24079;51.824;4.682;2022-10-29T07:39:48;29.08;;;17.30;;
37997;SDS011;24079;51.824;4.682;2022-10-29T07:42:14;29.98;;;17.88;;
37997;SDS011;24079;51.824;4.682;2022-10-29T07:44:39;32.80;;;18.00;;
37997;SDS011;24079;51.824;4.682;2022-10-29T07:47:05;30.23;;;17.33;;
37997;SDS011;24079;51.824;4.682;2022-10-29T07:49:31;35.28;;;17.02;;
37997;SDS011;24079;51.824;4.682;2022-10-29T07:51:56;32.47;;;17.00;;
37997;SDS011;24079;51.824;4.682;2022-10-29T07:54:22;29.98;;;16.77;;
37997;SDS011;24079;51.824;4.682;2022-10-29T07:56:50;37.25;;;18.05;;
37997;SDS011;24079;51.824;4.682;2022-10-29T07:59:16;35.33;;;17.15;;
37997;SDS011;24079;51.824;4.682;2022-10-29T08:01:43;37.22;;;17.25;;
37997;SDS011;24079;51.824;4.682;2022-10-29T08:04:08;35.03;;;17.48;;
37997;SDS011;24079;51.824;4.682;2022-10-29T08:06:34;32.92;;;17.58;;
37997;SDS011;24079;51.824;4.682;2022-10-29T08:09:00;38.58;;;16.73;;
37997;SDS011;24079;51.824;4.682;2022-10-29T08:11:25;33.25;;;17.05;;
37997;SDS011;24079;51.824;4.682;2022-10-29T08:13:51;36.03;;;17.17;;
37997;SDS011;24079;51.824;4.682;2022-10-29T08:16:16;38.85;;;16.42;;
37997;SDS011;24079;51.824;4.682;2022-10-29T08:18:42;31.83;;;16.42;;
37997;SDS011;24079;51.824;4.682;2022-10-29T08:21:08;31.48;;;15.95;;
37997;SDS011;24079;51.824;4.682;2022-10-29T08:23:33;32.50;;;15.93;;
37997;SDS011;24079;51.824;4.682;2022-10-29T08:25:59;35.97;;;15.40;;
37997;SDS011;24079;51.824;4.682;2022-10-29T08:28:24;33.20;;;16.73;;
37997;SDS011;24079;51.824;4.682;2022-10-29T08:30:50;28.65;;;14.98;;
37997;SDS011;24079;51.824;4.682;2022-10-29T08:33:16;37.60;;;15.80;;
37997;SDS011;24079;51.824;4.682;2022-10-29T08:35:42;33.65;;;15.43;;
37997;SDS011;24079;51.824;4.682;2022-10-29T08:38:07;28.63;;;13.52;;
37997;SDS011;24079;51.824;4.682;2022-10-29T08:43:46;29.77;;;13.18;;
37997;SDS011;24079;51.824;4.682;2022-10-29T08:46:53;29.95;;;13.13;;
37997;SDS011;24079;51.824;4.682;2022-10-29T08:51:52;34.88;;;14.52;;
37997;SDS011;24079;51.824;4.682;2022-10-29T08:54:21;27.08;;;13.75;;
37997;SDS011;24079;51.824;4.682;2022-10-29T08:56:52;34.47;;;13.77;;
37997;SDS011;24079;51.824;4.682;2022-10-29T08:59:22;31.88;;;15.15;;
37997;SDS011;24079;51.824;4.682;2022-10-29T09:01:49;27.50;;;14.50;;
37997;SDS011;24079;51.824;4.682;2022-10-29T09:04:21;27.27;;;13.65;;
37997;SDS011;24079;51.824;4.682;2022-10-29T09:09:38;31.33;;;15.15;;
37997;SDS011;24079;51.824;4.682;2022-10-29T09:12:16;31.17;;;14.60;;
37997;SDS011;24079;51.824;4.682;2022-10-29T09:20:20;34.08;;;15.75;;
37997;SDS011;24079;51.824;4.682;2022-10-29T09:25:21;33.30;;;14.82;;
37997;SDS011;24079;51.824;4.682;2022-10-29T09:28:13;30.08;;;13.63;;
37997;SDS011;24079;51.824;4.682;2022-10-29T09:33:40;30.52;;;14.15;;
37997;SDS011;24079;51.824;4.682;2022-10-29T09:36:13;31.85;;;15.15;;
37997;SDS011;24079;51.824;4.682;2022-10-29T09:38:59;39.03;;;16.73;;
37997;SDS011;24079;51.824;4.682;2022-10-29T09:46:48;30.40;;;14.43;;
37997;SDS011;24079;51.824;4.682;2022-10-29T09:49:40;29.95;;;14.57;;
37997;SDS011;24079;51.824;4.682;2022-10-29T09:52:15;33.70;;;14.93;;
37997;SDS011;24079;51.824;4.682;2022-10-29T09:57:17;32.70;;;13.50;;
37997;SDS011;24079;51.824;4.682;2022-10-29T09:59:46;28.45;;;14.40;;
37997;SDS011;24079;51.824;4.682;2022-10-29T10:02:26;42.95;;;13.68;;
37997;SDS011;24079;51.824;4.682;2022-10-29T10:05:06;32.55;;;13.10;;
37997;SDS011;24079;51.824;4.682;2022-10-29T10:07:37;30.55;;;12.85;;
37997;SDS011;24079;51.824;4.682;2022-10-29T10:10:05;24.75;;;12.65;;
37997;SDS011;24079;51.824;4.682;2022-10-29T10:12:43;30.75;;;13.27;;
37997;SDS011;24079;51.824;4.682;2022-10-29T10:17:53;26.23;;;11.80;;
37997;SDS011;24079;51.824;4.682;2022-10-29T10:22:51;20.30;;;11.68;;
37997;SDS011;24079;51.824;4.682;2022-10-29T10:25:31;26.15;;;11.73;;
37997;SDS011;24079;51.824;4.682;2022-10-29T10:28:02;25.73;;;12.32;;
37997;SDS011;24079;51.824;4.682;2022-10-29T10:30:38;24.65;;;11.20;;
37997;SDS011;24079;51.824;4.682;2022-10-29T10:33:23;28.83;;;10.50;;
37997;SDS011;24079;51.824;4.682;2022-10-29T10:35:51;25.42;;;9.98;;
37997;SDS011;24079;51.824;4.682;2022-10-29T10:38:18;25.95;;;10.77;;
37997;SDS011;24079;51.824;4.682;2022-10-29T10:40:44;27.23;;;10.60;;
37997;SDS011;24079;51.824;4.682;2022-10-29T10:43:24;22.83;;;9.48;;
37997;SDS011;24079;51.824;4.682;2022-10-29T10:45:55;21.48;;;8.70;;
37997;SDS011;24079;51.824;4.682;2022-10-29T10:48:23;29.67;;;8.80;;
37997;SDS011;24079;51.824;4.682;2022-10-29T10:50:52;22.20;;;8.80;;
37997;SDS011;24079;51.824;4.682;2022-10-29T10:53:35;19.25;;;8.45;;
37997;SDS011;24079;51.824;4.682;2022-10-29T10:56:04;22.75;;;8.80;;
37997;SDS011;24079;51.824;4.682;2022-10-29T10:58:44;17.77;;;7.88;;
37997;SDS011;24079;51.824;4.682;2022-10-29T11:01:14;21.23;;;8.07;;
37997;SDS011;24079;51.824;4.682;2022-10-29T11:03:47;14.85;;;7.18;;
37997;SDS011;24079;51.824;4.682;2022-10-29T11:06:21;17.85;;;7.60;;
37997;SDS011;24079;51.824;4.682;2022-10-29T11:08:57;24.05;;;8.40;;
37997;SDS011;24079;51.824;4.682;2022-10-29T11:11:59;22.48;;;7.57;;
37997;SDS011;24079;51.824;4.682;2022-10-29T11:14:34;20.40;;;8.30;;
37997;SDS011;24079;51.824;4.682;2022-10-29T11:17:18;17.38;;;7.90;;
37997;SDS011;24079;51.824;4.682;2022-10-29T11:19:56;17.92;;;7.43;;
37997;SDS011;24079;51.824;4.682;2022-10-29T11:25:03;24.88;;;8.02;;
37997;SDS011;24079;51.824;4.682;2022-10-29T11:28:02;21.55;;;8.00;;
37997;SDS011;24079;51.824;4.682;2022-10-29T11:30:58;27.25;;;8.07;;
37997;SDS011;24079;51.824;4.682;2022-10-29T11:33:53;17.95;;;6.75;;
37997;SDS011;24079;51.824;4.682;2022-10-29T11:36:21;19.27;;;7.18;;
37997;SDS011;24079;51.824;4.682;2022-10-29T11:38:51;21.20;;;7.38;;
37997;SDS011;24079;51.824;4.682;2022-10-29T11:43:47;26.67;;;8.38;;
37997;SDS011;24079;51.824;4.682;2022-10-29T11:46:20;22.67;;;7.43;;
37997;SDS011;24079;51.824;4.682;2022-10-29T11:57:26;16.65;;;6.63;;
37997;SDS011;24079;51.824;4.682;2022-10-29T12:41:01;23.10;;;5.97;;
37997;SDS011;24079;51.824;4.682;2022-10-29T12:43:30;20.55;;;6.22;;
37997;SDS011;24079;51.824;4.682;2022-10-29T12:56:31;20.38;;;6.00;;
37997;SDS011;24079;51.824;4.682;2022-10-29T12:58:57;20.77;;;5.60;;
37997;SDS011;24079;51.824;4.682;2022-10-29T13:01:49;15.00;;;5.20;;
37997;SDS011;24079;51.824;4.682;2022-10-29T13:04:22;17.67;;;5.60;;
37997;SDS011;24079;51.824;4.682;2022-10-29T13:06:59;18.70;;;5.60;;
37997;SDS011;24079;51.824;4.682;2022-10-29T13:12:08;18.77;;;5.32;;
37997;SDS011;24079;51.824;4.682;2022-10-29T13:14:54;17.48;;;5.93;;
37997;SDS011;24079;51.824;4.682;2022-10-29T13:17:34;17.98;;;5.55;;
37997;SDS011;24079;51.824;4.682;2022-10-29T13:30:37;20.17;;;6.00;;
37997;SDS011;24079;51.824;4.682;2022-10-29T13:35:55;17.35;;;5.03;;
37997;SDS011;24079;51.824;4.682;2022-10-29T13:43:42;22.85;;;5.43;;
37997;SDS011;24079;51.824;4.682;2022-10-29T13:52:04;20.90;;;5.30;;
37997;SDS011;24079;51.824;4.682;2022-10-29T13:57:24;17.90;;;4.90;;
37997;SDS011;24079;51.824;4.682;2022-10-29T14:00:14;16.98;;;4.72;;
37997;SDS011;24079;51.824;4.682;2022-10-29T14:10:12;18.88;;;5.03;;
37997;SDS011;24079;51.824;4.682;2022-10-29T14:12:47;17.40;;;5.32;;
37997;SDS011;24079;51.824;4.682;2022-10-29T14:15:15;22.10;;;5.50;;
37997;SDS011;24079;51.824;4.682;2022-10-29T14:17:42;23.95;;;5.63;;
37997;SDS011;24079;51.824;4.682;2022-10-29T14:20:24;18.02;;;5.13;;
37997;SDS011;24079;51.824;4.682;2022-10-29T14:22:52;20.02;;;5.35;;
37997;SDS011;24079;51.824;4.682;2022-10-29T14:25:25;20.42;;;4.95;;
37997;SDS011;24079;51.824;4.682;2022-10-29T14:28:12;22.42;;;5.22;;
37997;SDS011;24079;51.824;4.682;2022-10-29T14:30:40;21.67;;;5.68;;
37997;SDS011;24079;51.824;4.682;2022-10-29T14:33:16;17.88;;;4.80;;
37997;SDS011;24079;51.824;4.682;2022-10-29T14:35:52;19.35;;;5.00;;
37997;SDS011;24079;51.824;4.682;2022-10-29T14:38:43;15.70;;;4.65;;
37997;SDS011;24079;51.824;4.682;2022-10-29T14:41:15;17.30;;;4.82;;
37997;SDS011;24079;51.824;4.682;2022-10-29T14:43:42;19.70;;;5.40;;
37997;SDS011;24079;51.824;4.682;2022-10-29T14:46:11;15.20;;;4.70;;
37997;SDS011;24079;51.824;4.682;2022-10-29T14:48:50;13.13;;;4.28;;
37997;SDS011;24079;51.824;4.682;2022-10-29T14:51:22;16.75;;;5.53;;
37997;SDS011;24079;51.824;4.682;2022-10-29T14:53:53;17.13;;;4.85;;
37997;SDS011;24079;51.824;4.682;2022-10-29T14:56:29;15.48;;;4.60;;
37997;SDS011;24079;51.824;4.682;2022-10-29T14:58:58;25.67;;;4.85;;
37997;SDS011;24079;51.824;4.682;2022-10-29T15:01:26;19.92;;;4.78;;
37997;SDS011;24079;51.824;4.682;2022-10-29T15:03:57;12.10;;;4.50;;
37997;SDS011;24079;51.824;4.682;2022-10-29T15:06:26;15.18;;;4.60;;
37997;SDS011;24079;51.824;4.682;2022-10-29T15:08:58;25.65;;;5.05;;
37997;SDS011;24079;51.824;4.682;2022-10-29T15:11:35;18.33;;;5.25;;
37997;SDS011;24079;51.824;4.682;2022-10-29T15:14:03;19.75;;;5.00;;
37997;SDS011;24079;51.824;4.682;2022-10-29T15:16:47;22.25;;;5.35;;
37997;SDS011;24079;51.824;4.682;2022-10-29T15:19:13;16.92;;;4.38;;
37997;SDS011;24079;51.824;4.682;2022-10-29T15:21:40;13.63;;;4.97;;
37997;SDS011;24079;51.824;4.682;2022-10-29T15:24:11;23.65;;;11.77;;
37997;SDS011;24079;51.824;4.682;2022-10-29T15:26:52;32.08;;;6.15;;
37997;SDS011;24079;51.824;4.682;2022-10-29T15:29:24;27.15;;;8.25;;
37997;SDS011;24079;51.824;4.682;2022-10-29T15:31:53;23.80;;;6.70;;
37997;SDS011;24079;51.824;4.682;2022-10-29T15:36:49;22.45;;;5.78;;
37997;SDS011;24079;51.824;4.682;2022-10-29T15:39:21;20.95;;;5.40;;
37997;SDS011;24079;51.824;4.682;2022-10-29T15:41:51;23.42;;;5.03;;
37997;SDS011;24079;51.824;4.682;2022-10-29T15:46:57;19.05;;;5.63;;
37997;SDS011;24079;51.824;4.682;2022-10-29T15:49:24;19.55;;;5.63;;
37997;SDS011;24079;51.824;4.682;2022-10-29T15:51:54;17.80;;;5.72;;
37997;SDS011;24079;51.824;4.682;2022-10-29T15:54:22;19.45;;;5.80;;
37997;SDS011;24079;51.824;4.682;2022-10-29T15:56:48;26.90;;;5.72;;
37997;SDS011;24079;51.824;4.682;2022-10-29T15:59:21;20.67;;;5.70;;
37997;SDS011;24079;51.824;4.682;2022-10-29T16:01:48;20.08;;;5.43;;
37997;SDS011;24079;51.824;4.682;2022-10-29T16:04:14;22.38;;;6.05;;
37997;SDS011;24079;51.824;4.682;2022-10-29T16:06:39;20.83;;;5.82;;
37997;SDS011;24079;51.824;4.682;2022-10-29T16:09:05;23.20;;;6.10;;
37997;SDS011;24079;51.824;4.682;2022-10-29T16:11:30;21.50;;;6.18;;
37997;SDS011;24079;51.824;4.682;2022-10-29T16:13:58;25.23;;;6.55;;
37997;SDS011;24079;51.824;4.682;2022-10-29T16:16:24;23.60;;;5.80;;
37997;SDS011;24079;51.824;4.682;2022-10-29T16:18:50;19.95;;;6.13;;
37997;SDS011;24079;51.824;4.682;2022-10-29T16:21:23;26.58;;;6.18;;
37997;SDS011;24079;51.824;4.682;2022-10-29T16:23:50;20.63;;;5.68;;
37997;SDS011;24079;51.824;4.682;2022-10-29T16:26:20;27.20;;;6.32;;
37997;SDS011;24079;51.824;4.682;2022-10-29T16:28:47;22.40;;;6.47;;
37997;SDS011;24079;51.824;4.682;2022-10-29T16:31:20;17.15;;;5.70;;
37997;SDS011;24079;51.824;4.682;2022-10-29T16:33:49;19.88;;;6.60;;
37997;SDS011;24079;51.824;4.682;2022-10-29T16:36:16;16.85;;;5.80;;
37997;SDS011;24079;51.824;4.682;2022-10-29T16:38:42;25.95;;;5.82;;
37997;SDS011;24079;51.824;4.682;2022-10-29T16:41:10;18.45;;;5.45;;
37997;SDS011;24079;51.824;4.682;2022-10-29T16:46:05;19.80;;;6.43;;
37997;SDS011;24079;51.824;4.682;2022-10-29T16:48:31;17.42;;;5.63;;
37997;SDS011;24079;51.824;4.682;2022-10-29T16:50:57;19.00;;;4.90;;
37997;SDS011;24079;51.824;4.682;2022-10-29T16:53:23;17.17;;;5.57;;
37997;SDS011;24079;51.824;4.682;2022-10-29T16:55:48;17.70;;;5.80;;
37997;SDS011;24079;51.824;4.682;2022-10-29T16:58:14;14.45;;;4.75;;
37997;SDS011;24079;51.824;4.682;2022-10-29T17:00:41;20.33;;;5.78;;
37997;SDS011;24079;51.824;4.682;2022-10-29T17:03:08;21.08;;;4.90;;
37997;SDS011;24079;51.824;4.682;2022-10-29T17:05:39;17.77;;;5.72;;
37997;SDS011;24079;51.824;4.682;2022-10-29T17:08:06;19.38;;;5.35;;
37997;SDS011;24079;51.824;4.682;2022-10-29T17:10:32;19.55;;;5.80;;
37997;SDS011;24079;51.824;4.682;2022-10-29T17:12:58;20.40;;;5.85;;
37997;SDS011;24079;51.824;4.682;2022-10-29T17:15:24;13.20;;;4.53;;
37997;SDS011;24079;51.824;4.682;2022-10-29T17:17:50;14.23;;;4.97;;
37997;SDS011;24079;51.824;4.682;2022-10-29T17:20:15;22.67;;;5.30;;
37997;SDS011;24079;51.824;4.682;2022-10-29T17:22:41;29.25;;;5.80;;
37997;SDS011;24079;51.824;4.682;2022-10-29T17:25:08;16.88;;;5.82;;
37997;SDS011;24079;51.824;4.682;2022-10-29T17:27:36;17.33;;;5.18;;
37997;SDS011;24079;51.824;4.682;2022-10-29T17:30:05;27.38;;;5.10;;
37997;SDS011;24079;51.824;4.682;2022-10-29T17:32:32;21.73;;;5.38;;
37997;SDS011;24079;51.824;4.682;2022-10-29T17:34:58;16.70;;;5.13;;